Time;durP1;ratioP1;P1;durP2;ratioP2;P2;SDS_P1;SDS_P2;PMS_P1;PMS_P2;Temp;Humidity;BMP_temperature;BMP_pressure;BME280_temperature;BME280_humidity;BME280_pressure;Samples;Min_cycle;Max_cycle;Signal;HPM_P1;HPM_P2
2023/05/10 00:02:32;;;;;;;2.67;2.43;;;15.00;99.90;;;;;;5064084;28;20504;-71
2023/05/10 00:05:18;;;;;;;2.50;2.07;;;15.00;99.90;;;;;;5067023;28;20536;-71
2023/05/10 00:08:05;;;;;;;2.70;2.37;;;14.90;99.90;;;;;;5066623;28;20488;-71
2023/05/10 00:10:50;;;;;;;3.77;2.90;;;15.00;99.90;;;;;;5074033;28;20395;-71
2023/05/10 00:13:36;;;;;;;3.80;2.37;;;15.00;99.90;;;;;;5063164;28;20448;-72
2023/05/10 00:16:21;;;;;;;6.53;2.77;;;15.00;99.90;;;;;;5065584;28;20428;-73
2023/05/10 00:19:07;;;;;;;3.40;2.63;;;15.10;99.90;;;;;;5070873;28;20859;-71
2023/05/10 00:21:53;;;;;;;3.40;2.60;;;15.10;99.90;;;;;;5070620;28;20448;-71
2023/05/10 00:24:40;;;;;;;7.57;3.83;;;15.10;99.90;;;;;;5057832;28;21024;-71
2023/05/10 00:27:25;;;;;;;5.10;3.37;;;15.20;99.90;;;;;;5068820;28;20444;-71
2023/05/10 00:30:11;;;;;;;5.03;2.00;;;15.10;99.90;;;;;;5063666;28;20434;-71
2023/05/10 00:32:56;;;;;;;3.30;2.40;;;15.10;99.90;;;;;;5071393;28;20473;-71
2023/05/10 00:35:42;;;;;;;6.00;2.40;;;15.20;99.90;;;;;;5067994;28;20445;-72
2023/05/10 00:38:27;;;;;;;4.67;2.50;;;15.20;99.90;;;;;;5063165;28;20472;-71
2023/05/10 00:41:15;;;;;;;3.47;2.63;;;15.20;99.90;;;;;;5068083;28;20918;-71
2023/05/10 00:44:01;;;;;;;2.63;2.40;;;15.20;99.90;;;;;;5069093;28;20527;-72
2023/05/10 00:46:47;;;;;;;2.40;1.87;;;15.20;99.90;;;;;;5067080;28;20449;-73
2023/05/10 00:49:32;;;;;;;5.30;1.83;;;15.20;99.90;;;;;;5069092;28;20439;-71
2023/05/10 00:52:18;;;;;;;3.73;2.90;;;15.10;99.90;;;;;;5067370;28;20795;-71
2023/05/10 00:55:05;;;;;;;2.70;1.97;;;15.00;99.90;;;;;;5065694;28;20461;-72
2023/05/10 00:57:54;;;;;;;4.73;2.10;;;15.10;99.90;;;;;;5060524;28;20442;-73
2023/05/10 01:00:43;;;;;;;2.90;2.60;;;15.10;99.90;;;;;;5063127;28;20457;-71
2023/05/10 01:03:29;;;;;;;3.30;2.07;;;15.00;99.90;;;;;;5064894;28;20432;-71
2023/05/10 01:06:14;;;;;;;6.47;2.20;;;15.00;99.90;;;;;;5063371;28;20592;-72
2023/05/10 01:08:59;;;;;;;3.10;2.40;;;14.90;99.90;;;;;;5069971;28;20505;-72
2023/05/10 01:11:45;;;;;;;7.50;2.90;;;14.90;99.90;;;;;;5070798;28;20460;-72
2023/05/10 01:14:32;;;;;;;3.57;2.97;;;14.80;99.90;;;;;;5074596;28;20476;-72
2023/05/10 01:17:18;;;;;;;4.33;3.20;;;14.90;99.90;;;;;;5068502;28;20500;-71
2023/05/10 01:20:04;;;;;;;3.13;2.80;;;14.90;99.90;;;;;;5064885;28;21075;-71
2023/05/10 01:23:23;;;;;;;5.40;3.40;;;14.80;99.90;;;;;;5064067;28;20515;-72
2023/05/10 01:26:40;;;;;;;3.77;3.17;;;14.70;99.90;;;;;;5063758;28;20445;-73
2023/05/10 01:29:54;;;;;;;3.90;2.70;;;14.60;99.90;;;;;;5077431;28;20425;-73
2023/05/10 01:32:50;;;;;;;5.30;3.40;;;14.70;99.90;;;;;;5063089;28;20463;-73
2023/05/10 01:35:40;;;;;;;3.30;3.00;;;14.80;99.90;;;;;;5071617;28;20443;-72
2023/05/10 01:38:37;;;;;;;3.10;2.80;;;14.80;99.90;;;;;;5069304;28;20464;-73
2023/05/10 01:41:31;;;;;;;5.73;3.00;;;14.80;99.90;;;;;;5068012;28;20445;-73
2023/05/10 01:44:24;;;;;;;4.63;3.10;;;14.90;99.90;;;;;;5069196;28;20441;-72
2023/05/10 01:47:13;;;;;;;3.83;3.40;;;14.90;99.90;;;;;;5064435;28;20443;-73
2023/05/10 01:50:03;;;;;;;4.00;3.23;;;14.90;99.90;;;;;;5066813;28;20429;-73
2023/05/10 01:52:52;;;;;;;5.60;3.20;;;14.90;99.90;;;;;;5063895;28;20937;-73
2023/05/10 01:55:46;;;;;;;4.73;3.70;;;15.00;99.90;;;;;;5065086;28;20570;-73
2023/05/10 01:58:35;;;;;;;4.07;3.37;;;14.90;99.90;;;;;;5064369;28;20524;-72
2023/05/10 02:01:22;;;;;;;5.83;3.80;;;14.90;99.90;;;;;;5063739;28;20857;-72
2023/05/10 02:04:08;;;;;;;3.97;3.57;;;14.70;99.90;;;;;;5064748;28;20568;-72
2023/05/10 02:06:57;;;;;;;4.97;4.47;;;14.70;99.90;;;;;;5065136;28;20565;-72
2023/05/10 02:09:47;;;;;;;8.03;3.80;;;14.80;99.90;;;;;;5062847;28;20802;-72
2023/05/10 02:12:35;;;;;;;6.70;4.33;;;14.80;99.90;;;;;;5067999;28;20416;-72
2023/05/10 02:15:24;;;;;;;4.67;4.00;;;14.70;99.90;;;;;;5066266;28;20453;-72
2023/05/10 02:18:11;;;;;;;4.60;4.20;;;14.80;99.90;;;;;;5067266;28;20534;-72
2023/05/10 02:20:58;;;;;;;4.33;3.80;;;14.70;99.90;;;;;;5065355;28;20451;-72
2023/05/10 02:23:47;;;;;;;5.73;4.00;;;14.80;99.90;;;;;;5067177;28;20498;-73
2023/05/10 02:26:34;;;;;;;4.43;4.03;;;14.80;99.90;;;;;;5064513;28;20880;-73
2023/05/10 02:29:20;;;;;;;6.53;3.80;;;14.80;99.90;;;;;;5071070;28;21107;-73
2023/05/10 02:32:06;;;;;;;7.57;3.90;;;14.90;99.90;;;;;;5063690;28;20458;-72
2023/05/10 02:34:53;;;;;;;4.10;3.60;;;14.80;99.90;;;;;;5065156;28;20565;-72
2023/05/10 02:37:40;;;;;;;4.90;4.37;;;14.70;99.90;;;;;;5065630;28;20472;-72
2023/05/10 02:40:28;;;;;;;4.90;3.87;;;14.50;99.90;;;;;;5061324;28;20494;-72
2023/05/10 02:43:16;;;;;;;4.77;3.30;;;14.50;99.90;;;;;;5066232;28;20515;-72
2023/05/10 02:46:02;;;;;;;7.60;3.80;;;14.50;99.90;;;;;;5058742;28;20419;-73
2023/05/10 02:48:48;;;;;;;4.17;3.33;;;14.40;99.90;;;;;;5062647;28;20529;-73
2023/05/10 02:51:37;;;;;;;3.60;3.07;;;14.40;99.90;;;;;;5065730;28;21858;-72
2023/05/10 02:54:28;;;;;;;5.30;3.77;;;14.50;99.90;;;;;;5065005;28;20447;-72
2023/05/10 02:57:19;;;;;;;3.70;3.30;;;14.40;99.90;;;;;;5065169;28;20523;-72
2023/05/10 03:00:05;;;;;;;3.77;3.40;;;14.50;99.90;;;;;;5065995;28;20502;-73
2023/05/10 03:02:51;;;;;;;5.87;3.50;;;14.60;99.90;;;;;;5063160;28;20446;-73
2023/05/10 03:05:36;;;;;;;4.83;3.43;;;14.50;99.90;;;;;;5060407;28;20503;-72
2023/05/10 03:08:22;;;;;;;3.60;3.03;;;14.60;99.90;;;;;;5065605;28;20925;-73
2023/05/10 03:11:26;;;;;;;3.73;3.43;;;14.60;99.90;;;;;;5066650;28;20425;-73
2023/05/10 03:14:22;;;;;;;6.63;3.00;;;14.60;99.90;;;;;;5066571;28;20551;-72
2023/05/10 03:17:15;;;;;;;4.10;3.43;;;14.50;99.90;;;;;;5069996;28;20837;-73
2023/05/10 03:20:07;;;;;;;6.20;3.57;;;14.60;99.90;;;;;;5071232;22;21303;-73
2023/05/10 03:22:56;;;;;;;3.43;2.60;;;14.60;99.90;;;;;;5042491;28;20420;-73
2023/05/10 03:25:43;;;;;;;2.73;2.20;;;14.60;99.90;;;;;;5051267;28;20456;-73
2023/05/10 03:28:29;;;;;;;4.00;2.87;;;14.60;99.90;;;;;;5056926;28;20961;-73
2023/05/10 03:31:15;;;;;;;3.33;2.73;;;14.60;99.90;;;;;;5046183;28;20524;-73
2023/05/10 03:34:01;;;;;;;2.40;2.20;;;14.70;99.90;;;;;;5044423;28;20451;-73
2023/05/10 03:36:46;;;;;;;4.80;2.60;;;14.70;99.90;;;;;;5034288;28;20940;-73
2023/05/10 03:39:32;;;;;;;3.80;2.93;;;14.70;99.90;;;;;;5037779;28;20466;-73
2023/05/10 03:42:17;;;;;;;4.03;2.80;;;14.70;99.90;;;;;;5027995;28;20637;-73
2023/05/10 03:45:03;;;;;;;3.30;2.67;;;14.60;99.90;;;;;;5020283;28;20971;-73
2023/05/10 03:47:50;;;;;;;6.43;2.90;;;14.60;99.90;;;;;;5026952;28;20445;-73
2023/05/10 03:50:35;;;;;;;3.57;3.10;;;14.60;99.90;;;;;;5028753;28;20449;-73
2023/05/10 03:53:21;;;;;;;5.83;3.10;;;14.70;99.90;;;;;;5030205;28;21083;-73
2023/05/10 03:56:06;;;;;;;3.37;2.87;;;14.70;99.90;;;;;;5028517;28;20450;-71
2023/05/10 03:58:51;;;;;;;4.60;2.87;;;14.70;99.90;;;;;;5028091;28;20450;-71
2023/05/10 04:01:37;;;;;;;5.03;3.10;;;14.70;99.90;;;;;;5035440;28;20495;-71
2023/05/10 04:04:24;;;;;;;6.90;3.47;;;14.70;99.90;;;;;;5023300;28;21168;-71
2023/05/10 04:07:10;;;;;;;4.60;3.40;;;14.70;99.90;;;;;;5029047;28;20442;-72
2023/05/10 04:09:55;;;;;;;6.33;3.50;;;14.70;99.90;;;;;;5028219;28;20444;-71
2023/05/10 04:12:40;;;;;;;3.90;3.10;;;14.60;99.90;;;;;;5027357;28;20462;-72
2023/05/10 04:15:26;;;;;;;6.57;4.07;;;14.50;99.90;;;;;;5025898;28;20968;-71
2023/05/10 04:18:11;;;;;;;4.90;3.60;;;14.60;99.90;;;;;;5033580;28;20516;-71
2023/05/10 04:20:58;;;;;;;6.70;3.97;;;14.50;99.90;;;;;;5023890;28;20437;-71
2023/05/10 04:23:43;;;;;;;5.20;3.73;;;14.50;99.90;;;;;;5024235;28;20463;-72
2023/05/10 04:26:29;;;;;;;10.53;4.73;;;14.40;99.90;;;;;;5026310;28;20429;-71
2023/05/10 04:29:14;;;;;;;4.57;3.90;;;14.50;99.90;;;;;;5021823;28;20440;-71
2023/05/10 04:32:00;;;;;;;4.47;4.00;;;14.50;99.90;;;;;;5032727;28;20926;-71
2023/05/10 04:34:45;;;;;;;4.67;3.80;;;14.50;99.90;;;;;;5023414;28;20816;-71
2023/05/10 04:37:32;;;;;;;6.10;3.97;;;14.50;99.90;;;;;;5029096;28;20449;-71
2023/05/10 04:40:18;;;;;;;5.73;3.93;;;14.50;99.90;;;;;;5029981;28;20450;-71
2023/05/10 04:43:03;;;;;;;4.03;3.63;;;14.50;99.90;;;;;;5033224;28;20576;-71
2023/05/10 04:45:50;;;;;;;8.87;3.83;;;14.40;99.90;;;;;;5027626;28;20444;-71
2023/05/10 04:48:35;;;;;;;5.70;4.07;;;14.40;99.90;;;;;;5029624;28;20552;-71
2023/05/10 04:51:21;;;;;;;7.23;3.70;;;14.50;99.90;;;;;;5027050;28;20425;-71
2023/05/10 04:54:07;;;;;;;4.87;3.50;;;14.50;99.90;;;;;;5019487;28;20452;-71
2023/05/10 04:56:52;;;;;;;6.60;3.90;;;14.50;99.90;;;;;;5029605;28;20805;-72
2023/05/10 04:59:38;;;;;;;4.80;3.30;;;14.50;99.90;;;;;;5037390;28;20474;-71
2023/05/10 05:02:24;;;;;;;7.63;3.40;;;14.50;99.90;;;;;;5021657;28;21012;-71
2023/05/10 05:05:09;;;;;;;3.67;3.37;;;14.50;99.90;;;;;;5019771;28;21069;-71
2023/05/10 05:07:55;;;;;;;6.07;3.67;;;14.50;99.90;;;;;;5024476;28;20430;-71
2023/05/10 05:10:41;;;;;;;3.90;3.23;;;14.40;99.90;;;;;;5025658;28;20453;-71
2023/05/10 05:13:27;;;;;;;5.97;3.27;;;14.40;99.90;;;;;;5025799;28;20462;-71
2023/05/10 05:16:12;;;;;;;3.57;3.17;;;14.40;99.90;;;;;;5027571;28;20427;-71
2023/05/10 05:18:58;;;;;;;7.33;3.47;;;14.30;99.90;;;;;;5026118;28;20562;-71
2023/05/10 05:21:43;;;;;;;4.57;3.60;;;14.20;99.90;;;;;;5026305;28;20423;-71
2023/05/10 05:24:29;;;;;;;5.60;2.90;;;14.20;99.90;;;;;;5022107;28;20459;-71
2023/05/10 05:27:16;;;;;;;4.17;3.40;;;14.30;99.90;;;;;;5031571;28;20465;-71
2023/05/10 05:30:01;;;;;;;10.43;3.57;;;14.40;99.90;;;;;;5028014;28;20465;-71
2023/05/10 05:32:47;;;;;;;4.87;2.73;;;14.40;99.90;;;;;;5021113;28;20424;-71
2023/05/10 05:35:32;;;;;;;3.80;3.20;;;14.40;99.90;;;;;;5028004;28;21054;-72
2023/05/10 05:38:18;;;;;;;9.17;2.83;;;14.40;99.90;;;;;;5025014;28;20475;-71
2023/05/10 05:41:03;;;;;;;3.43;2.93;;;14.50;99.90;;;;;;5029671;28;20428;-73
2023/05/10 05:43:50;;;;;;;5.80;2.70;;;14.50;99.90;;;;;;5020900;28;20425;-72
2023/05/10 05:46:36;;;;;;;7.53;4.37;;;14.50;99.90;;;;;;5028156;28;20805;-71
2023/05/10 05:49:21;;;;;;;11.00;3.30;;;14.50;99.90;;;;;;5029455;28;20440;-72
2023/05/10 05:52:07;;;;;;;4.70;3.00;;;14.60;99.90;;;;;;5025093;28;20979;-71
2023/05/10 05:54:52;;;;;;;10.63;3.40;;;14.50;99.90;;;;;;5021557;28;21002;-71
2023/05/10 05:57:38;;;;;;;3.87;3.00;;;14.50;99.90;;;;;;5022691;28;20425;-72
2023/05/10 06:00:25;;;;;;;8.80;3.43;;;14.60;99.90;;;;;;5028088;28;21336;-72
2023/05/10 06:03:11;;;;;;;3.40;2.43;;;14.60;99.90;;;;;;5027313;28;21010;-71
2023/05/10 06:05:56;;;;;;;3.20;2.50;;;14.60;99.90;;;;;;5028143;28;21870;-71
2023/05/10 06:08:42;;;;;;;3.80;3.40;;;14.70;99.90;;;;;;5024927;28;20463;-71
2023/05/10 06:11:27;;;;;;;5.60;3.13;;;14.70;99.90;;;;;;5024491;28;20826;-71
2023/05/10 06:14:13;;;;;;;12.00;2.90;;;14.80;99.90;;;;;;5022513;28;20462;-72
2023/05/10 06:17:00;;;;;;;3.97;3.20;;;14.80;99.90;;;;;;5028388;28;20967;-72
2023/05/10 06:19:45;;;;;;;5.07;3.03;;;14.80;99.90;;;;;;5032989;28;20968;-72
2023/05/10 06:22:31;;;;;;;6.63;3.00;;;14.80;99.90;;;;;;5024557;28;20417;-72
2023/05/10 06:25:17;;;;;;;5.30;3.37;;;14.80;99.90;;;;;;5024969;28;20421;-72
2023/05/10 06:28:03;;;;;;;3.70;3.13;;;14.80;99.90;;;;;;5023096;28;20933;-71
2023/05/10 06:30:48;;;;;;;5.27;3.57;;;14.70;99.90;;;;;;5024479;28;20453;-72
2023/05/10 06:33:35;;;;;;;3.73;3.33;;;14.70;99.90;;;;;;5017461;28;20961;-71
2023/05/10 06:36:21;;;;;;;6.70;3.20;;;14.70;99.90;;;;;;5036604;28;20457;-71
2023/05/10 06:39:07;;;;;;;8.63;3.83;;;14.80;99.90;;;;;;5041276;28;20535;-71
2023/05/10 06:41:52;;;;;;;6.00;3.53;;;14.90;99.90;;;;;;5040199;28;20464;-71
2023/05/10 06:44:38;;;;;;;4.53;4.07;;;15.00;99.90;;;;;;5039026;28;20445;-72
2023/05/10 06:47:23;;;;;;;5.50;4.00;;;15.00;99.90;;;;;;5050246;28;20503;-72
2023/05/10 06:50:12;;;;;;;3.87;3.47;;;15.10;99.90;;;;;;5040713;28;20503;-72
2023/05/10 06:52:57;;;;;;;5.43;4.13;;;15.10;99.90;;;;;;5032212;28;20570;-72
2023/05/10 06:55:43;;;;;;;6.70;4.20;;;15.10;99.90;;;;;;5052097;28;20465;-72
2023/05/10 06:58:28;;;;;;;3.90;3.60;;;15.20;99.90;;;;;;5039089;28;20429;-72
2023/05/10 07:01:14;;;;;;;6.00;3.30;;;15.30;99.90;;;;;;5035605;28;20521;-72
2023/05/10 07:03:59;;;;;;;7.57;3.70;;;15.30;99.90;;;;;;5025313;28;20433;-70
2023/05/10 07:06:46;;;;;;;5.00;3.30;;;15.30;99.90;;;;;;5027756;28;20996;-72
2023/05/10 07:09:32;;;;;;;6.10;3.30;;;15.30;99.90;;;;;;5025999;28;21003;-72
2023/05/10 07:12:17;;;;;;;5.13;3.07;;;15.40;99.90;;;;;;5022677;28;20432;-72
2023/05/10 07:15:03;;;;;;;4.10;3.23;;;15.30;99.90;;;;;;5028114;28;20454;-72
2023/05/10 07:17:48;;;;;;;4.70;3.63;;;15.30;99.90;;;;;;5025990;28;20785;-72
2023/05/10 07:20:34;;;;;;;4.57;3.77;;;15.30;99.90;;;;;;5030245;28;20519;-72
2023/05/10 07:23:21;;;;;;;4.33;3.40;;;15.30;99.90;;;;;;5030441;28;20457;-72
2023/05/10 07:26:06;;;;;;;5.07;3.57;;;15.30;99.90;;;;;;5025818;28;20424;-72
2023/05/10 07:28:52;;;;;;;4.63;3.70;;;15.30;99.90;;;;;;5029779;28;20978;-72
2023/05/10 07:31:37;;;;;;;6.77;4.20;;;15.20;99.90;;;;;;5016107;28;20462;-72
2023/05/10 07:34:23;;;;;;;5.10;3.90;;;15.20;99.90;;;;;;5022648;28;20497;-71
2023/05/10 07:37:08;;;;;;;4.40;4.00;;;15.10;99.90;;;;;;5033875;28;20427;-72
2023/05/10 07:39:55;;;;;;;6.03;4.00;;;15.20;99.90;;;;;;5032503;28;20485;-72
2023/05/10 07:42:41;;;;;;;4.70;4.30;;;15.30;99.90;;;;;;5030442;28;20463;-72
2023/05/10 07:45:26;;;;;;;6.47;3.70;;;15.40;99.90;;;;;;5025784;28;20971;-72
2023/05/10 07:48:12;;;;;;;9.43;4.00;;;15.50;99.90;;;;;;5032339;28;20443;-72
2023/05/10 07:50:57;;;;;;;6.90;3.43;;;15.60;99.90;;;;;;5033697;28;20563;-72
2023/05/10 07:53:43;;;;;;;4.00;3.60;;;15.60;99.90;;;;;;5019069;28;20434;-72
2023/05/10 07:56:31;;;;;;;5.83;3.83;;;15.70;99.90;;;;;;5021237;28;20628;-72
2023/05/10 07:59:17;;;;;;;4.70;3.33;;;15.90;99.90;;;;;;5027735;28;20489;-72
2023/05/10 08:02:03;;;;;;;7.20;3.07;;;16.00;99.90;;;;;;5022689;28;20472;-72
2023/05/10 08:04:48;;;;;;;3.93;3.23;;;15.90;99.90;;;;;;5024441;28;20412;-72
2023/05/10 08:07:34;;;;;;;6.80;3.20;;;16.00;99.90;;;;;;5027044;28;20471;-71
2023/05/10 08:10:20;;;;;;;3.90;3.30;;;16.10;99.90;;;;;;5026037;28;20871;-71
2023/05/10 08:13:07;;;;;;;4.23;3.30;;;16.10;99.90;;;;;;5032677;28;20927;-71
2023/05/10 08:15:52;;;;;;;3.63;3.10;;;16.10;99.90;;;;;;5023204;28;20605;-72
2023/05/10 08:18:38;;;;;;;12.53;3.20;;;16.20;99.90;;;;;;5022634;28;20486;-72
2023/05/10 08:21:24;;;;;;;6.87;2.67;;;16.20;99.90;;;;;;5027883;28;20453;-72
2023/05/10 08:24:09;;;;;;;4.27;3.87;;;16.30;99.90;;;;;;5019785;28;20456;-72
2023/05/10 08:26:55;;;;;;;5.87;3.60;;;16.30;99.90;;;;;;5027249;28;20418;-72
2023/05/10 08:29:42;;;;;;;11.40;3.60;;;16.20;99.90;;;;;;5026008;28;20465;-72
2023/05/10 08:32:27;;;;;;;4.50;3.30;;;16.20;99.90;;;;;;5028896;28;20439;-72
2023/05/10 08:35:13;;;;;;;4.27;3.43;;;16.30;99.90;;;;;;5020803;28;20477;-72
2023/05/10 08:37:58;;;;;;;3.80;3.00;;;16.30;99.90;;;;;;5025146;28;20427;-72
2023/05/10 08:40:45;;;;;;;4.30;3.60;;;16.20;99.90;;;;;;5028324;28;20470;-72
2023/05/10 08:43:32;;;;;;;3.97;3.20;;;16.20;99.90;;;;;;5033122;28;20858;-72
2023/05/10 08:46:20;;;;;;;7.10;3.87;;;16.20;99.90;;;;;;5034409;28;20500;-72
2023/05/10 08:49:08;;;;;;;3.53;3.20;;;16.30;99.90;;;;;;5031899;28;20992;-72
2023/05/10 08:51:56;;;;;;;5.33;3.40;;;16.40;99.90;;;;;;5044113;28;20465;-72
2023/05/10 08:54:41;;;;;;;4.07;3.20;;;16.50;99.90;;;;;;5033814;28;20424;-72
2023/05/10 08:57:27;;;;;;;4.70;3.37;;;16.50;99.90;;;;;;5051110;28;21069;-72
2023/05/10 09:00:14;;;;;;;5.50;3.27;;;16.50;99.90;;;;;;5026367;28;20470;-72
2023/05/10 09:03:02;;;;;;;5.20;3.77;;;16.70;99.90;;;;;;5040060;28;20440;-72
2023/05/10 09:05:49;;;;;;;3.60;3.17;;;16.70;99.90;;;;;;5029071;28;20443;-72
2023/05/10 09:08:35;;;;;;;7.17;3.50;;;16.80;99.90;;;;;;5019388;28;21083;-72
2023/05/10 09:11:21;;;;;;;3.17;2.87;;;16.80;99.90;;;;;;5026719;28;20450;-72
2023/05/10 09:14:06;;;;;;;3.60;3.10;;;16.90;99.90;;;;;;5029782;28;20559;-72
2023/05/10 09:16:53;;;;;;;3.30;2.63;;;16.90;99.90;;;;;;5027159;28;20466;-72
2023/05/10 09:19:40;;;;;;;4.83;2.70;;;17.10;99.90;;;;;;5025027;28;20486;-72
2023/05/10 09:22:26;;;;;;;6.67;3.57;;;17.20;99.90;;;;;;5029206;28;20958;-72
2023/05/10 09:25:13;;;;;;;6.83;2.43;;;17.20;99.90;;;;;;5023935;28;20470;-72
2023/05/10 09:27:58;;;;;;;4.60;3.00;;;17.20;99.90;;;;;;5016802;28;20456;-72
2023/05/10 09:30:44;;;;;;;10.10;3.10;;;17.20;99.90;;;;;;5023618;28;20446;-72
2023/05/10 09:33:29;;;;;;;4.77;2.30;;;17.10;99.90;;;;;;5044324;28;20423;-72
2023/05/10 09:36:16;;;;;;;5.57;2.47;;;17.00;99.90;;;;;;5048856;28;20451;-72
2023/05/10 09:39:03;;;;;;;4.00;3.10;;;16.80;99.90;;;;;;5028146;28;20557;-72
2023/05/10 09:41:49;;;;;;;6.23;2.73;;;16.60;99.90;;;;;;5032200;28;20462;-72
2023/05/10 09:44:35;;;;;;;9.20;3.20;;;16.50;99.90;;;;;;5043339;28;20414;-72
2023/05/10 09:47:20;;;;;;;4.13;2.50;;;16.30;99.90;;;;;;5042265;28;20416;-73
2023/05/10 09:50:07;;;;;;;7.90;2.63;;;16.20;99.90;;;;;;5018501;28;20466;-71
2023/05/10 09:52:57;;;;;;;6.63;2.53;;;16.10;99.90;;;;;;5029506;28;20898;-71
2023/05/10 09:55:44;;;;;;;6.83;2.40;;;16.00;99.90;;;;;;5025504;28;22170;-71
2023/05/10 09:58:30;;;;;;;3.43;2.10;;;15.90;99.90;;;;;;5023985;28;20576;-71
2023/05/10 10:01:15;;;;;;;2.83;2.30;;;15.90;99.90;;;;;;5025508;28;20483;-71
2023/05/10 10:04:04;;;;;;;3.63;2.97;;;15.90;99.90;;;;;;5028271;28;20420;-72
2023/05/10 10:07:00;;;;;;;7.07;3.50;;;15.90;99.90;;;;;;5025890;28;20460;-72
2023/05/10 10:09:47;;;;;;;5.00;3.33;;;15.90;99.90;;;;;;5025684;28;20478;-72
2023/05/10 10:12:32;;;;;;;6.93;2.73;;;16.00;99.90;;;;;;5024583;28;20446;-72
2023/05/10 10:15:17;;;;;;;3.47;3.00;;;16.00;99.90;;;;;;5030275;28;20467;-72
2023/05/10 10:18:03;;;;;;;5.10;3.57;;;16.20;99.90;;;;;;5020316;28;20447;-72
2023/05/10 10:20:49;;;;;;;12.03;8.97;;;16.30;99.90;;;;;;5023902;28;20512;-72
2023/05/10 10:23:35;;;;;;;4.80;4.30;;;16.50;99.90;;;;;;5037732;28;20933;-72
2023/05/10 10:26:23;;;;;;;3.30;2.93;;;16.70;99.90;;;;;;5025869;28;20914;-72
2023/05/10 10:29:20;;;;;;;4.90;3.43;;;16.80;99.90;;;;;;5037723;28;20479;-72
2023/05/10 10:32:13;;;;;;;4.20;3.40;;;16.80;99.90;;;;;;5025920;28;20418;-72
2023/05/10 10:34:58;;;;;;;3.73;2.90;;;16.80;99.90;;;;;;5034336;28;20482;-72
2023/05/10 10:37:45;;;;;;;5.33;3.20;;;16.60;99.90;;;;;;5037173;28;20450;-72
2023/05/10 10:40:32;;;;;;;4.00;2.57;;;16.30;99.90;;;;;;5031533;28;20417;-72
2023/05/10 10:43:27;;;;;;;3.13;2.43;;;16.00;99.90;;;;;;5053319;28;20548;-72
2023/05/10 10:46:13;;;;;;;4.30;2.50;;;15.90;99.90;;;;;;5051018;28;20482;-72
2023/05/10 10:49:10;;;;;;;3.47;2.20;;;15.70;99.90;;;;;;5045085;28;20550;-72
2023/05/10 10:52:15;;;;;;;11.83;2.93;;;15.60;99.90;;;;;;5040432;28;20487;-72
2023/05/10 10:55:03;;;;;;;7.33;2.93;;;15.50;99.90;;;;;;5046643;28;20405;-72
2023/05/10 10:57:51;;;;;;;5.80;2.30;;;15.50;99.90;;;;;;5041626;28;20408;-72
2023/05/10 11:00:40;;;;;;;5.63;2.70;;;15.50;99.90;;;;;;5041285;28;20447;-72
2023/05/10 11:03:25;;;;;;;4.23;2.70;;;15.50;99.90;;;;;;5041539;28;20422;-72
2023/05/10 11:06:11;;;;;;;18.40;3.83;;;15.70;99.90;;;;;;5049541;28;20474;-72
2023/05/10 11:08:56;;;;;;;3.90;2.67;;;15.80;99.90;;;;;;5034509;28;20474;-72
2023/05/10 11:11:54;;;;;;;4.53;2.90;;;16.00;99.90;;;;;;5040822;28;20815;-72
2023/05/10 11:14:40;;;;;;;5.47;2.90;;;16.30;99.90;;;;;;5033578;28;20509;-72
2023/05/10 11:17:28;;;;;;;3.90;3.30;;;16.40;99.90;;;;;;5046127;28;20802;-72
2023/05/10 11:20:15;;;;;;;4.60;2.77;;;16.50;99.90;;;;;;5034587;28;20459;-72
2023/05/10 11:23:15;;;;;;;8.53;2.93;;;16.60;99.90;;;;;;5042225;28;20456;-72
2023/05/10 11:26:01;;;;;;;4.17;2.70;;;16.60;99.90;;;;;;5040599;28;20483;-72
2023/05/10 11:28:48;;;;;;;4.53;2.30;;;16.60;99.90;;;;;;5027040;28;20466;-72
2023/05/10 11:31:33;;;;;;;3.37;2.50;;;16.60;99.90;;;;;;5032510;28;20934;-72
2023/05/10 11:34:27;;;;;;;4.43;2.57;;;16.70;99.90;;;;;;5046629;28;20446;-72
2023/05/10 11:37:13;;;;;;;3.30;2.57;;;16.80;99.90;;;;;;5044102;28;20449;-72
2023/05/10 11:39:58;;;;;;;2.63;2.23;;;16.90;99.90;;;;;;5027278;28;20493;-72
2023/05/10 11:42:44;;;;;;;7.37;2.00;;;17.20;99.90;;;;;;5046752;28;20481;-72
2023/05/10 11:45:31;;;;;;;3.83;2.40;;;17.30;99.90;;;;;;5046457;28;20510;-72
2023/05/10 11:48:22;;;;;;;4.33;1.90;;;17.50;99.90;;;;;;5040421;28;20466;-72
2023/05/10 11:51:09;;;;;;;2.97;1.87;;;17.70;99.90;;;;;;5046286;28;20557;-72
2023/05/10 11:53:57;;;;;;;3.50;1.97;;;17.70;99.90;;;;;;5036469;28;20791;-72
2023/05/10 11:56:42;;;;;;;5.20;1.70;;;17.60;99.90;;;;;;5032623;28;20472;-72
2023/05/10 11:59:28;;;;;;;5.40;1.40;;;17.60;99.90;;;;;;5040967;28;20450;-72
2023/05/10 12:02:14;;;;;;;6.20;1.73;;;17.50;99.90;;;;;;5038368;28;21033;-72
2023/05/10 12:05:00;;;;;;;3.77;1.70;;;17.20;99.90;;;;;;5039637;28;20429;-72
2023/05/10 12:07:47;;;;;;;2.30;1.60;;;17.10;99.90;;;;;;5042615;28;20761;-72
2023/05/10 12:10:35;;;;;;;2.40;2.10;;;16.80;99.90;;;;;;5032870;28;20473;-72
2023/05/10 12:13:21;;;;;;;4.23;1.77;;;16.70;99.90;;;;;;5037786;28;20489;-72
2023/05/10 12:16:17;;;;;;;4.40;1.67;;;16.70;99.90;;;;;;5047947;28;20556;-72
2023/05/10 12:19:03;;;;;;;2.80;1.70;;;16.40;99.90;;;;;;5036849;28;20486;-73
2023/05/10 12:21:49;;;;;;;2.90;1.70;;;16.30;99.90;;;;;;5032713;28;20454;-72
2023/05/10 12:24:37;;;;;;;3.10;1.53;;;16.40;99.90;;;;;;5032862;28;20517;-73
2023/05/10 12:27:23;;;;;;;2.10;1.50;;;16.50;99.90;;;;;;5046712;28;20458;-73
2023/05/10 12:30:09;;;;;;;4.33;1.87;;;16.80;99.90;;;;;;5031651;28;20582;-72
2023/05/10 12:33:00;;;;;;;6.40;2.43;;;17.10;99.90;;;;;;5029624;28;20427;-72
2023/05/10 12:35:46;;;;;;;11.60;1.73;;;17.30;99.90;;;;;;5030683;28;20432;-72
2023/05/10 12:38:35;;;;;;;2.20;1.10;;;17.60;99.90;;;;;;5040443;28;20972;-73
2023/05/10 12:41:21;;;;;;;6.03;1.53;;;17.70;99.90;;;;;;5028906;28;20512;-72
2023/05/10 12:44:07;;;;;;;6.90;1.40;;;17.70;99.90;;;;;;5034867;28;20446;-72
2023/05/10 12:46:52;;;;;;;2.60;1.17;;;17.80;99.90;;;;;;5029379;28;20897;-72
2023/05/10 12:49:38;;;;;;;5.70;1.53;;;17.80;99.90;;;;;;5040815;28;20422;-72
2023/05/10 12:52:24;;;;;;;4.13;1.40;;;18.00;99.90;;;;;;5031268;28;20452;-73
2023/05/10 12:55:09;;;;;;;2.07;1.10;;;18.10;99.90;;;;;;5049178;28;20437;-73
2023/05/10 12:57:55;;;;;;;3.80;1.50;;;18.20;99.90;;;;;;5050451;28;20470;-72
2023/05/10 13:00:41;;;;;;;2.73;1.20;;;17.90;99.90;;;;;;5031373;28;20450;-72
2023/05/10 13:03:27;;;;;;;3.20;1.27;;;17.70;99.90;;;;;;5050139;28;20401;-72
2023/05/10 13:06:13;;;;;;;3.87;1.23;;;17.60;99.90;;;;;;5038755;28;20426;-73
2023/05/10 13:08:58;;;;;;;3.20;1.30;;;17.40;99.90;;;;;;5043496;28;20446;-73
2023/05/10 13:11:45;;;;;;;12.80;1.60;;;17.30;99.90;;;;;;5025323;28;20529;-73
2023/05/10 13:14:31;;;;;;;6.43;2.00;;;17.20;99.90;;;;;;5035400;28;20577;-72
2023/05/10 13:17:17;;;;;;;2.57;1.27;;;17.20;99.90;;;;;;5044967;28;20440;-73
2023/05/10 13:20:03;;;;;;;3.93;2.10;;;17.30;99.90;;;;;;5046945;28;20465;-73
2023/05/10 13:22:48;;;;;;;4.30;1.43;;;17.60;99.90;;;;;;5031333;28;20814;-73
2023/05/10 13:25:34;;;;;;;3.77;1.50;;;17.80;99.90;;;;;;5027603;28;20447;-72
2023/05/10 13:28:19;;;;;;;4.47;1.77;;;18.00;99.90;;;;;;5024860;28;20490;-72
2023/05/10 13:31:06;;;;;;;5.30;1.60;;;18.20;99.90;;;;;;5023536;28;20947;-72
2023/05/10 13:33:51;;;;;;;1.80;1.40;;;18.30;99.90;;;;;;5021819;28;20447;-73
2023/05/10 13:36:37;;;;;;;4.07;1.50;;;18.40;99.90;;;;;;5031674;28;20523;-73
2023/05/10 13:39:23;;;;;;;4.40;1.83;;;18.30;99.90;;;;;;5029068;28;20468;-72
2023/05/10 13:42:08;;;;;;;6.43;1.97;;;18.00;99.90;;;;;;5021251;28;20431;-72
2023/05/10 13:44:54;;;;;;;3.60;1.50;;;17.90;99.90;;;;;;5021916;28;20451;-72
2023/05/10 13:47:41;;;;;;;8.20;1.70;;;17.90;99.90;;;;;;5033151;28;20646;-72
2023/05/10 13:50:26;;;;;;;3.13;1.50;;;17.90;99.90;;;;;;5024803;28;20475;-72
2023/05/10 13:53:12;;;;;;;4.57;1.50;;;17.80;99.90;;;;;;5030259;28;20475;-72
2023/05/10 13:55:57;;;;;;;2.90;1.20;;;17.90;99.90;;;;;;5023214;28;20495;-72
2023/05/10 13:58:43;;;;;;;8.60;1.30;;;17.80;99.90;;;;;;5022260;28;20472;-72
2023/05/10 14:01:29;;;;;;;3.37;1.90;;;17.80;99.90;;;;;;5022176;28;20471;-72
2023/05/10 14:04:15;;;;;;;2.70;1.40;;;17.90;99.90;;;;;;5017302;28;20463;-72
2023/05/10 14:07:01;;;;;;;3.60;1.33;;;18.00;99.90;;;;;;5033627;28;20450;-72
2023/05/10 14:09:46;;;;;;;1.90;1.20;;;18.20;99.90;;;;;;5042801;28;20470;-72
2023/05/10 14:12:32;;;;;;;3.70;1.07;;;18.40;99.90;;;;;;5023756;28;20587;-70
2023/05/10 14:15:17;;;;;;;6.60;1.40;;;18.30;99.90;;;;;;5025996;28;20423;-70
2023/05/10 14:18:03;;;;;;;9.03;1.47;;;18.20;99.90;;;;;;5026423;28;20515;-71
2023/05/10 14:20:50;;;;;;;6.03;1.40;;;18.30;99.90;;;;;;5026523;28;20479;-71
2023/05/10 14:23:35;;;;;;;4.20;1.60;;;18.30;99.90;;;;;;5019142;28;20458;-71
2023/05/10 14:26:21;;;;;;;3.73;1.57;;;18.30;99.90;;;;;;5022340;28;20535;-71
2023/05/10 14:29:07;;;;;;;5.67;1.30;;;18.10;99.90;;;;;;5023273;28;20463;-71